createdAt,value
2017-09-10T12:25:56.604Z,944.62
2017-09-10T12:26:56.603Z,944.66
2017-09-10T12:27:56.635Z,944.68
2017-09-10T12:28:56.599Z,944.69
2017-09-10T12:29:56.596Z,944.73
2017-09-10T12:30:56.594Z,944.74
2017-09-10T12:31:56.593Z,944.72
2017-09-10T12:32:56.590Z,944.71
2017-09-10T12:33:56.589Z,944.74
2017-09-10T12:34:56.585Z,944.71
2017-09-10T12:35:56.601Z,944.76
2017-09-10T12:36:56.583Z,944.78
2017-09-10T12:37:56.580Z,944.78
2017-09-10T12:38:56.595Z,944.79
2017-09-10T12:39:56.575Z,944.78
2017-09-10T12:40:56.573Z,944.81
2017-09-10T12:41:56.571Z,944.7
2017-09-10T12:42:56.569Z,944.76
2017-09-10T12:43:56.566Z,944.71
2017-09-10T12:44:56.567Z,944.82
2017-09-10T12:45:56.562Z,944.7
2017-09-10T12:46:56.559Z,944.71
2017-09-10T12:47:56.557Z,944.74
2017-09-10T12:48:56.556Z,944.69
2017-09-10T12:49:56.560Z,944.76
2017-09-10T12:50:56.550Z,944.72
2017-09-10T12:51:56.548Z,944.77
2017-09-10T12:52:56.547Z,944.77
2017-09-10T12:53:56.545Z,944.8
2017-09-10T12:54:56.543Z,944.87
2017-09-10T12:55:56.549Z,944.85
2017-09-10T12:56:56.538Z,944.84
2017-09-10T12:57:56.559Z,944.85
2017-09-10T12:58:56.534Z,944.82
2017-09-10T12:59:56.532Z,944.78
2017-09-10T13:00:56.531Z,944.8
2017-09-10T13:01:56.527Z,944.83
2017-09-10T13:02:56.527Z,944.79
2017-09-10T13:03:56.525Z,944.8
2017-09-10T13:04:56.538Z,944.76
2017-09-10T13:05:56.521Z,944.84
2017-09-10T13:06:56.518Z,944.79
2017-09-10T13:07:56.518Z,944.83
2017-09-10T13:08:56.515Z,944.81
2017-09-10T13:09:56.513Z,944.76
2017-09-10T13:10:56.515Z,944.73
2017-09-10T13:11:56.509Z,944.78
2017-09-10T13:12:56.527Z,944.78
2017-09-10T13:13:56.505Z,944.82
2017-09-10T13:14:56.504Z,944.87
2017-09-10T13:15:56.504Z,944.86
2017-09-10T13:16:56.499Z,944.85
2017-09-10T13:17:56.497Z,944.86
2017-09-10T13:18:56.495Z,944.88
2017-09-10T13:19:56.493Z,944.91
2017-09-10T13:20:56.515Z,944.94
2017-09-10T13:21:56.490Z,944.91
2017-09-10T13:22:56.489Z,944.93
2017-09-10T13:23:56.485Z,944.96
2017-09-10T13:24:56.484Z,944.97
2017-09-10T13:25:56.483Z,944.95
2017-09-10T13:26:56.480Z,945
2017-09-10T13:27:56.478Z,944.99
2017-09-10T13:28:56.489Z,945.03
2017-09-10T13:29:56.475Z,945.03
2017-09-10T13:30:56.472Z,944.97
2017-09-10T13:31:56.470Z,945.02
2017-09-10T13:32:56.467Z,944.96
2017-09-10T13:33:56.467Z,945
2017-09-10T13:34:56.464Z,944.96
2017-09-10T13:35:56.463Z,944.95
2017-09-10T13:36:56.462Z,944.97
2017-09-10T13:37:56.474Z,944.94
2017-09-10T13:38:56.456Z,944.92
2017-09-10T13:39:56.454Z,944.93
2017-09-10T13:40:56.453Z,944.9
2017-09-10T13:41:56.454Z,944.85
2017-09-10T13:42:56.449Z,944.9
2017-09-10T13:43:56.447Z,944.94
2017-09-10T13:44:56.446Z,944.97
2017-09-10T13:45:56.442Z,945
2017-09-10T13:46:56.440Z,944.97
2017-09-10T13:47:56.438Z,944.98
2017-09-10T13:48:56.438Z,944.97
2017-09-10T13:49:56.435Z,944.92
2017-09-10T13:50:56.432Z,944.95
2017-09-10T13:52:01.138Z,944.9
2017-09-10T13:52:56.428Z,944.95
2017-09-10T13:53:56.426Z,945.01
2017-09-10T13:54:56.424Z,944.99
2017-09-10T13:55:56.422Z,945
2017-09-10T13:56:56.420Z,944.98
2017-09-10T13:57:56.417Z,944.97
2017-09-10T13:58:56.416Z,944.98
2017-09-10T13:59:56.414Z,944.95
2017-09-10T14:00:56.412Z,944.93
2017-09-10T14:01:56.410Z,944.94
2017-09-10T14:02:56.426Z,944.94
2017-09-10T14:03:56.405Z,944.95
2017-09-10T14:04:56.402Z,944.98
2017-09-10T14:05:56.401Z,944.96
2017-09-10T14:06:56.399Z,944.98
2017-09-10T14:07:56.396Z,944.99
2017-09-10T14:08:56.398Z,944.97
2017-09-10T14:09:56.392Z,944.98
2017-09-10T14:10:56.388Z,944.96
2017-09-10T14:11:56.387Z,945.04
2017-09-10T14:12:56.385Z,945.06
2017-09-10T14:13:56.383Z,945.11
2017-09-10T14:14:56.380Z,945.07
2017-09-10T14:15:56.377Z,945.07
2017-09-10T14:16:56.376Z,945.03
2017-09-10T14:17:56.373Z,945.03
2017-09-10T14:18:56.370Z,945.02
2017-09-10T14:19:56.368Z,945.03
2017-09-10T14:20:56.368Z,945.03
2017-09-10T14:21:56.365Z,944.98
2017-09-10T14:22:56.361Z,945.01
2017-09-10T14:23:56.358Z,945.02
2017-09-10T14:24:56.357Z,945.01
2017-09-10T14:25:56.354Z,945.03
2017-09-10T14:26:56.353Z,945
2017-09-10T14:27:56.348Z,944.96
2017-09-10T14:28:56.347Z,945.01
2017-09-10T14:29:56.342Z,944.97
2017-09-10T14:30:56.341Z,944.97
2017-09-10T14:31:56.338Z,944.98
2017-09-10T14:32:56.334Z,944.95
2017-09-10T14:33:56.331Z,944.97
2017-09-10T14:34:56.329Z,944.97
2017-09-10T14:35:56.334Z,944.99
2017-09-10T14:36:56.323Z,945.01
2017-09-10T14:37:56.319Z,945.01
2017-09-10T14:38:56.318Z,945.02
2017-09-10T14:39:56.314Z,945.01
2017-09-10T14:40:56.311Z,944.97
2017-09-10T14:41:56.307Z,944.9
2017-09-10T14:42:56.305Z,944.94
2017-09-10T14:43:56.301Z,944.9
2017-09-10T14:44:56.298Z,944.93
2017-09-10T14:45:56.295Z,944.96
2017-09-10T14:46:56.292Z,944.94
2017-09-10T14:47:56.287Z,944.92
2017-09-10T14:48:56.284Z,944.97
2017-09-10T14:49:56.281Z,945.02
2017-09-10T14:50:56.278Z,945.02
2017-09-10T14:51:56.274Z,945.03
2017-09-10T14:52:56.271Z,945
2017-09-10T14:53:56.287Z,945.02
2017-09-10T14:54:56.266Z,945.03
2017-09-10T14:55:56.261Z,945.03
2017-09-10T14:56:56.262Z,945.05
2017-09-10T14:57:56.254Z,944.97
2017-09-10T14:58:56.250Z,944.98
2017-09-10T14:59:56.247Z,944.99
2017-09-10T15:00:56.273Z,945.02
2017-09-10T15:01:56.241Z,945.01
2017-09-10T15:02:56.237Z,945.03
2017-09-10T15:03:56.234Z,944.98
2017-09-10T15:04:56.233Z,945
2017-09-10T15:05:56.228Z,945.09
2017-09-10T15:06:56.224Z,944.99
2017-09-10T15:07:56.221Z,944.98
2017-09-10T15:08:56.218Z,945.05
2017-09-10T15:09:56.215Z,944.97
2017-09-10T15:10:56.218Z,944.97
2017-09-10T15:11:56.207Z,944.96
2017-09-10T15:12:56.206Z,944.98
2017-09-10T15:13:56.200Z,944.95
2017-09-10T15:14:56.197Z,944.9
2017-09-10T15:15:56.204Z,944.94
2017-09-10T15:16:56.190Z,944.83
2017-09-10T15:17:56.186Z,944.88
2017-09-10T15:18:56.184Z,944.82
2017-09-10T15:19:56.180Z,944.84
2017-09-10T15:20:56.176Z,944.83
2017-09-10T15:21:56.182Z,944.86
2017-09-10T15:22:56.171Z,944.87
2017-09-10T15:23:56.166Z,944.87
2017-09-10T15:24:56.162Z,944.83
2017-09-10T15:25:56.163Z,944.83
2017-09-10T15:26:56.156Z,944.88
2017-09-10T15:27:56.165Z,944.82
2017-09-10T15:28:56.147Z,944.88
2017-09-10T15:29:56.143Z,944.82
2017-09-10T15:30:56.142Z,944.86
2017-09-10T15:31:56.137Z,944.83
2017-09-10T15:32:56.132Z,944.84
2017-09-10T15:33:56.128Z,944.83
2017-09-10T15:34:56.125Z,944.83
2017-09-10T15:35:56.122Z,944.84
2017-09-10T15:36:56.118Z,944.9
2017-09-10T15:37:56.114Z,944.9
2017-09-10T15:38:56.111Z,944.88
2017-09-10T15:39:56.107Z,944.9
2017-09-10T15:40:56.103Z,944.96
2017-09-10T15:41:56.098Z,944.91
2017-09-10T15:42:56.093Z,944.95
2017-09-10T15:43:56.089Z,945.02
2017-09-10T15:44:56.085Z,944.96
2017-09-10T15:45:56.082Z,944.98
2017-09-10T15:46:56.077Z,944.97
2017-09-10T15:47:56.073Z,944.98
2017-09-10T15:48:56.071Z,944.96
2017-09-10T15:49:56.064Z,944.97
2017-09-10T15:50:56.061Z,944.95
2017-09-10T15:51:56.057Z,944.97
2017-09-10T15:52:56.053Z,944.93
2017-09-10T15:53:56.048Z,944.96
2017-09-10T15:54:56.045Z,944.91
2017-09-10T15:55:56.041Z,944.9
2017-09-10T15:56:56.037Z,944.87
2017-09-10T15:57:56.032Z,944.9
2017-09-10T15:58:56.028Z,944.9
2017-09-10T15:59:56.025Z,944.88
2017-09-10T16:00:56.018Z,944.87
2017-09-10T16:01:56.015Z,944.92
2017-09-10T16:02:56.011Z,944.92
2017-09-10T16:03:56.008Z,944.9
2017-09-10T16:04:56.002Z,944.92
2017-09-10T16:05:55.999Z,944.94
2017-09-10T16:06:55.993Z,944.92
2017-09-10T16:07:55.988Z,944.89
2017-09-10T16:08:55.985Z,944.88
2017-09-10T16:09:55.981Z,944.88
2017-09-10T16:10:55.976Z,944.83
2017-09-10T16:11:55.974Z,944.81
2017-09-10T16:12:55.967Z,944.8
2017-09-10T16:13:55.964Z,944.81
2017-09-10T16:14:55.958Z,944.82
2017-09-10T16:15:55.954Z,944.79
2017-09-10T16:16:55.953Z,944.77
2017-09-10T16:17:55.945Z,944.76
2017-09-10T16:18:55.940Z,944.77
2017-09-10T16:19:55.935Z,944.74
2017-09-10T16:20:55.930Z,944.76
2017-09-10T16:21:55.926Z,944.76
2017-09-10T16:22:55.920Z,944.77
2017-09-10T16:23:55.916Z,944.79
2017-09-10T16:24:55.912Z,944.79
2017-09-10T16:25:55.906Z,944.76
2017-09-10T16:26:55.901Z,944.78
2017-09-10T16:27:55.897Z,944.78
2017-09-10T16:28:55.891Z,944.77
2017-09-10T16:29:55.887Z,944.77
2017-09-10T16:30:55.882Z,944.83
2017-09-10T16:31:55.877Z,944.84
2017-09-10T16:32:55.873Z,944.83
2017-09-10T16:33:55.869Z,944.84
2017-09-10T16:34:55.861Z,944.86
2017-09-10T16:35:55.857Z,944.86
2017-09-10T16:36:55.852Z,944.85
2017-09-10T16:37:55.846Z,944.82
2017-09-10T16:38:55.841Z,944.8
2017-09-10T16:39:55.838Z,944.81
2017-09-10T16:40:55.842Z,944.81
2017-09-10T16:41:55.827Z,944.77
2017-09-10T16:42:55.822Z,944.78
2017-09-10T16:43:55.816Z,944.76
2017-09-10T16:44:55.811Z,944.77
2017-09-10T16:45:55.805Z,944.77
2017-09-10T16:46:55.800Z,944.73
2017-09-10T16:47:55.796Z,944.74
2017-09-10T16:48:55.790Z,944.76
2017-09-10T16:49:55.784Z,944.73
2017-09-10T16:50:55.779Z,944.76
2017-09-10T16:51:55.773Z,944.81
2017-09-10T16:52:55.768Z,944.78
2017-09-10T16:53:55.771Z,944.76
2017-09-10T16:54:55.759Z,944.71
2017-09-10T16:55:55.752Z,944.72
2017-09-10T16:56:55.747Z,944.72
2017-09-10T16:57:55.742Z,944.73
2017-09-10T16:58:55.737Z,944.77
2017-09-10T16:59:55.730Z,944.73
2017-09-10T17:00:55.726Z,944.73
2017-09-10T17:01:55.719Z,944.74
2017-09-10T17:02:55.714Z,944.75
2017-09-10T17:03:55.707Z,944.75
2017-09-10T17:04:55.702Z,944.77
2017-09-10T17:05:55.696Z,944.76
2017-09-10T17:06:55.690Z,944.75
2017-09-10T17:07:55.685Z,944.72
2017-09-10T17:08:55.683Z,944.76
2017-09-10T17:09:55.673Z,944.74
2017-09-10T17:10:55.667Z,944.75
2017-09-10T17:11:55.662Z,944.72
2017-09-10T17:12:55.658Z,944.74
2017-09-10T17:13:55.650Z,944.73
2017-09-10T17:14:55.644Z,944.73
2017-09-10T17:15:55.642Z,944.72
2017-09-10T17:16:55.634Z,944.75
2017-09-10T17:17:55.647Z,944.78
2017-09-10T17:18:55.622Z,944.79
2017-09-10T17:19:55.635Z,944.83
2017-09-10T17:20:55.609Z,944.82
2017-09-10T17:21:55.604Z,944.79
2017-09-10T17:22:55.597Z,944.8
2017-09-10T17:23:55.592Z,944.77
2017-09-10T17:24:55.586Z,944.74
2017-09-10T17:25:55.581Z,944.74
2017-09-10T17:26:55.575Z,944.74
2017-09-10T17:27:55.569Z,944.74
2017-09-10T17:28:55.582Z,944.69
2017-09-10T17:29:55.556Z,944.69
2017-09-10T17:30:55.549Z,944.66
2017-09-10T17:31:55.543Z,944.67
2017-09-10T17:32:55.536Z,944.69
2017-09-10T17:33:55.530Z,944.68
2017-09-10T17:34:55.525Z,944.68
2017-09-10T17:35:55.517Z,944.69
2017-09-10T17:36:55.512Z,944.73
2017-09-10T17:37:55.505Z,944.73
2017-09-10T17:38:55.546Z,944.72
2017-09-10T17:39:55.492Z,944.68
2017-09-10T17:40:55.485Z,944.69
2017-09-10T17:41:55.479Z,944.7
2017-09-10T17:42:55.472Z,944.67
2017-09-10T17:43:55.474Z,944.62
2017-09-10T17:44:55.459Z,944.62
2017-09-10T17:45:55.457Z,944.65
2017-09-10T17:46:55.446Z,944.67
2017-09-10T17:47:55.441Z,944.63
2017-09-10T17:48:55.432Z,944.72
2017-09-10T17:49:55.427Z,944.72
2017-09-10T17:50:55.419Z,944.74
2017-09-10T17:51:55.412Z,944.76
2017-09-10T17:52:55.405Z,944.81
2017-09-10T17:53:55.397Z,944.81
2017-09-10T17:54:55.392Z,944.78
2017-09-10T17:55:55.385Z,944.8
2017-09-10T17:56:55.379Z,944.8
2017-09-10T17:57:55.371Z,944.8
2017-09-10T17:58:55.363Z,944.81
2017-09-10T17:59:55.366Z,944.87
2017-09-10T18:00:55.350Z,944.91
2017-09-10T18:01:55.342Z,944.92
2017-09-10T18:02:55.335Z,944.9
2017-09-10T18:03:55.334Z,944.92
2017-09-10T18:04:55.320Z,944.95
2017-09-10T18:05:55.313Z,944.92
2017-09-10T18:06:55.306Z,944.94
2017-09-10T18:07:55.299Z,944.94
2017-09-10T18:08:55.307Z,944.95
2017-09-10T18:09:55.284Z,944.97
2017-09-10T18:10:55.277Z,945.02
2017-09-10T18:11:55.269Z,944.99
2017-09-10T18:12:55.261Z,945
2017-09-10T18:13:55.254Z,945
2017-09-10T18:14:55.248Z,945.01
2017-09-10T18:15:55.247Z,945.02
2017-09-10T18:16:55.233Z,945.03
2017-09-10T18:17:55.226Z,945.03
2017-09-10T18:18:55.420Z,945.05
2017-09-10T18:19:55.213Z,945.05
2017-09-10T18:20:55.218Z,945.01
2017-09-10T18:21:55.195Z,945.01
2017-09-10T18:22:55.198Z,945.03
2017-09-10T18:23:55.178Z,945.02
2017-09-10T18:24:55.180Z,945
2017-09-10T18:25:55.164Z,944.96
2017-09-10T18:26:55.156Z,945
2017-09-10T18:27:55.160Z,944.98
2017-09-10T18:28:55.140Z,944.97
2017-09-10T18:29:55.138Z,945
2017-09-10T18:30:55.125Z,945.03
2017-09-10T18:31:55.117Z,945.02
2017-09-10T18:32:55.110Z,945.03
2017-09-10T18:33:55.102Z,945.03
2017-09-10T18:34:55.094Z,945.07
2017-09-10T18:35:55.085Z,945.02
2017-09-10T18:36:55.078Z,945.07
2017-09-10T18:37:55.072Z,945.06
2017-09-10T18:38:55.062Z,945.04
2017-09-10T18:39:55.054Z,945.06
2017-09-10T18:40:55.064Z,945.06
2017-09-10T18:41:57.891Z,945.04
2017-09-10T18:42:55.069Z,945.06
2017-09-10T18:43:55.023Z,945.06
2017-09-10T18:44:55.014Z,945.04
2017-09-10T18:45:55.008Z,945.03
2017-09-10T18:46:55.015Z,945
2017-09-10T18:47:54.992Z,944.98
2017-09-10T18:48:54.982Z,944.99
2017-09-10T18:49:54.985Z,945
2017-09-10T18:50:54.967Z,944.98
2017-09-10T18:51:54.958Z,945.01
2017-09-10T18:52:54.949Z,945.03
2017-09-10T18:53:54.942Z,945.01
2017-09-10T18:54:54.934Z,945.02
2017-09-10T18:55:54.926Z,945.05
2017-09-10T18:56:54.918Z,944.98
2017-09-10T18:57:54.915Z,944.99
2017-09-10T18:58:54.904Z,944.98
2017-09-10T18:59:54.893Z,945
2017-09-10T19:00:54.883Z,944.97
2017-09-10T19:01:54.877Z,944.93
2017-09-10T19:02:54.868Z,944.89
2017-09-10T19:03:54.858Z,944.91
2017-09-10T19:04:54.851Z,944.86
2017-09-10T19:05:54.844Z,944.88
2017-09-10T19:06:54.840Z,944.88
2017-09-10T19:07:54.825Z,944.94
2017-09-10T19:08:54.819Z,944.97
2017-09-10T19:09:54.808Z,944.99
2017-09-10T19:10:54.801Z,945.02
2017-09-10T19:11:54.794Z,945.06
2017-09-10T19:12:54.784Z,945.03
2017-09-10T19:13:54.790Z,945.01
2017-09-10T19:14:54.769Z,945.05
2017-09-10T19:15:54.761Z,945.03
2017-09-10T19:16:54.752Z,945.04
2017-09-10T19:17:54.742Z,945.02
2017-09-10T19:18:54.734Z,945.01
2017-09-10T19:19:54.727Z,945.02
2017-09-10T19:20:54.718Z,945.03
2017-09-10T19:21:54.711Z,945.01
2017-09-10T19:22:54.703Z,945.1
2017-09-10T19:23:54.694Z,945.07
2017-09-10T19:24:54.686Z,945.06
2017-09-10T19:25:54.691Z,945.03
2017-09-10T19:26:54.669Z,945.03
2017-09-10T19:27:54.671Z,945.02
2017-09-10T19:28:54.651Z,945.04
2017-09-10T19:29:54.644Z,945.04
2017-09-10T19:30:54.635Z,945.04
2017-09-10T19:31:54.629Z,945.06
2017-09-10T19:32:54.631Z,945.09
2017-09-10T19:33:54.609Z,945.1
2017-09-10T19:34:54.599Z,945.07
2017-09-10T19:35:54.592Z,945.08
2017-09-10T19:36:54.583Z,945.07
2017-09-10T19:37:54.574Z,945.03
2017-09-10T19:38:54.574Z,945.04
2017-09-10T19:39:54.581Z,945.03
2017-09-10T19:40:54.550Z,944.98
2017-09-10T19:41:54.540Z,945
2017-09-10T19:42:54.533Z,944.96
2017-09-10T19:43:54.523Z,944.93
2017-09-10T19:44:54.514Z,944.97
2017-09-10T19:45:54.506Z,944.95
2017-09-10T19:46:54.497Z,945.01
2017-09-10T19:47:54.489Z,944.98
2017-09-10T19:48:54.480Z,944.96
2017-09-10T19:49:54.491Z,944.97
2017-09-10T19:50:54.462Z,944.98
2017-09-10T19:51:54.452Z,944.95
2017-09-10T19:52:54.456Z,944.97
2017-09-10T19:53:54.435Z,944.96
2017-09-10T19:54:54.430Z,944.95
2017-09-10T19:55:54.421Z,944.89
2017-09-10T19:56:54.409Z,944.91
2017-09-10T19:57:54.401Z,944.94
2017-09-10T19:58:54.392Z,944.92
2017-09-10T19:59:54.384Z,944.92
2017-09-10T20:00:54.374Z,944.95
2017-09-10T20:01:54.365Z,944.97
2017-09-10T20:02:54.356Z,944.96
2017-09-10T20:03:54.347Z,944.99
2017-09-10T20:04:54.338Z,945.02
2017-09-10T20:05:54.329Z,945.01
2017-09-10T20:06:54.322Z,945.01
2017-09-10T20:07:54.312Z,945.02
2017-09-10T20:08:54.305Z,945
2017-09-10T20:09:54.295Z,945
2017-09-10T20:10:54.287Z,945.01
2017-09-10T20:11:54.277Z,945.02
2017-09-10T20:12:54.267Z,945.01
2017-09-10T20:13:54.267Z,945.02
2017-09-10T20:14:54.250Z,945.03
2017-09-10T20:15:54.241Z,945
2017-09-10T20:16:54.231Z,945.02
2017-09-10T20:17:54.222Z,945.02
2017-09-10T20:18:54.214Z,945.02
2017-09-10T20:19:54.205Z,945
2017-09-10T20:20:54.195Z,944.99
2017-09-10T20:21:54.188Z,945.03
2017-09-10T20:22:54.189Z,944.99
2017-09-10T20:23:54.169Z,945.01
2017-09-10T20:24:54.191Z,944.97
2017-09-10T20:25:54.151Z,944.95
2017-09-10T20:26:54.142Z,944.98
2017-09-10T20:27:54.133Z,944.96
2017-09-10T20:28:54.124Z,944.97
2017-09-10T20:29:54.115Z,944.93
2017-09-10T20:30:54.107Z,944.96
2017-09-10T20:31:54.096Z,944.98
2017-09-10T20:32:54.088Z,944.97
2017-09-10T20:33:54.079Z,944.97
2017-09-10T20:34:54.068Z,944.92
2017-09-10T20:35:54.061Z,944.97
2017-09-10T20:36:54.051Z,944.95
2017-09-10T20:37:54.043Z,944.94
2017-09-10T20:38:54.032Z,944.9
2017-09-10T20:39:54.474Z,944.9
2017-09-10T20:40:54.014Z,944.9
2017-09-10T20:41:54.004Z,944.94
2017-09-10T20:42:53.998Z,944.93
2017-09-10T20:43:54.005Z,944.93
2017-09-10T20:44:53.978Z,944.94
2017-09-10T20:45:53.969Z,944.93
2017-09-10T20:46:53.961Z,944.96
2017-09-10T20:47:53.953Z,944.94
2017-09-10T20:48:53.943Z,944.95
2017-09-10T20:49:53.939Z,944.9
2017-09-10T20:50:53.923Z,944.9
2017-09-10T20:51:53.913Z,944.89
2017-09-10T20:52:53.903Z,944.87
2017-09-10T20:53:53.895Z,944.82
2017-09-10T20:54:53.901Z,944.84
2017-09-10T20:55:53.878Z,944.82
2017-09-10T20:56:53.872Z,944.82
2017-09-10T20:57:53.874Z,944.82
2017-09-10T20:58:53.868Z,944.8
2017-09-10T20:59:53.840Z,944.81
2017-09-10T21:00:53.832Z,944.81
2017-09-10T21:01:53.821Z,944.78
2017-09-10T21:02:53.815Z,944.75
2017-09-10T21:03:53.802Z,944.75
2017-09-10T21:04:53.793Z,944.79
2017-09-10T21:05:53.786Z,944.8
2017-09-10T21:06:53.778Z,944.74
2017-09-10T21:07:53.768Z,944.79
2017-09-10T21:08:53.761Z,944.75
2017-09-10T21:09:53.748Z,944.77
2017-09-10T21:10:53.740Z,944.73
2017-09-10T21:11:53.731Z,944.73
2017-09-10T21:12:53.721Z,944.74
2017-09-10T21:13:53.713Z,944.74
2017-09-10T21:14:53.703Z,944.71
2017-09-10T21:15:53.696Z,944.73
2017-09-10T21:16:53.690Z,944.75
2017-09-10T21:17:53.679Z,944.7
2017-09-10T21:18:53.665Z,944.7
2017-09-10T21:19:53.659Z,944.71
2017-09-10T21:20:53.649Z,944.75
2017-09-10T21:21:53.640Z,944.73
2017-09-10T21:22:53.631Z,944.74
2017-09-10T21:23:53.675Z,944.72
2017-09-10T21:24:53.611Z,944.77
2017-09-10T21:25:53.603Z,944.71
2017-09-10T21:26:53.595Z,944.68
2017-09-10T21:27:53.585Z,944.7
2017-09-10T21:28:53.577Z,944.7
2017-09-10T21:29:53.566Z,944.71
2017-09-10T21:30:53.558Z,944.73
2017-09-10T21:31:53.549Z,944.69
2017-09-10T21:32:53.540Z,944.7
2017-09-10T21:33:53.530Z,944.71
2017-09-10T21:34:53.521Z,944.68
2017-09-10T21:35:53.512Z,944.69
2017-09-10T21:36:53.502Z,944.67
2017-09-10T21:37:53.494Z,944.68
2017-09-10T21:38:53.486Z,944.64
2017-09-10T21:39:53.474Z,944.65
2017-09-10T21:40:53.467Z,944.66
2017-09-10T21:41:53.470Z,944.62
2017-09-10T21:42:53.448Z,944.59
2017-09-10T21:43:53.439Z,944.56
2017-09-10T21:44:53.431Z,944.64
2017-09-10T21:45:53.420Z,944.61
2017-09-10T21:46:53.411Z,944.62
2017-09-10T21:47:53.401Z,944.65
2017-09-10T21:48:53.394Z,944.68
2017-09-10T21:49:53.385Z,944.64
2017-09-10T21:50:53.376Z,944.7
2017-09-10T21:51:53.380Z,944.68
2017-09-10T21:52:53.357Z,944.67
2017-09-10T21:53:53.348Z,944.61
2017-09-10T21:54:53.360Z,944.61
2017-09-10T21:55:53.330Z,944.55
2017-09-10T21:56:53.321Z,944.59
2017-09-10T21:57:53.315Z,944.57
2017-09-10T21:58:53.301Z,944.53
2017-09-10T21:59:53.293Z,944.54
2017-09-10T22:00:53.286Z,944.53
2017-09-10T22:01:53.277Z,944.57
2017-09-10T22:02:53.266Z,944.49
2017-09-10T22:03:53.258Z,944.5
2017-09-10T22:04:53.249Z,944.57
2017-09-10T22:05:53.238Z,944.51
2017-09-10T22:06:53.243Z,944.52
2017-09-10T22:07:53.222Z,944.55
2017-09-10T22:08:53.211Z,944.5
2017-09-10T22:09:53.201Z,944.58
2017-09-10T22:10:53.192Z,944.55
2017-09-10T22:11:53.183Z,944.54
2017-09-10T22:12:53.174Z,944.55
2017-09-10T22:13:53.165Z,944.53
2017-09-10T22:14:53.157Z,944.56
2017-09-10T22:15:53.146Z,944.56
2017-09-10T22:16:53.137Z,944.54
2017-09-10T22:17:53.131Z,944.57
2017-09-10T22:18:53.119Z,944.55
2017-09-10T22:19:53.110Z,944.63
2017-09-10T22:20:53.099Z,944.58
2017-09-10T22:21:53.090Z,944.53
2017-09-10T22:22:53.082Z,944.56
2017-09-10T22:23:53.074Z,944.53
2017-09-10T22:24:53.063Z,944.51
2017-09-10T22:25:53.055Z,944.45
2017-09-10T22:26:53.066Z,944.44
2017-09-10T22:27:53.034Z,944.43
2017-09-10T22:28:53.041Z,944.45
2017-09-10T22:29:53.017Z,944.48
2017-09-10T22:30:53.007Z,944.43
2017-09-10T22:31:53.013Z,944.44
2017-09-10T22:32:52.990Z,944.42
2017-09-10T22:33:52.980Z,944.37
2017-09-10T22:34:52.970Z,944.39
2017-09-10T22:35:52.961Z,944.37
2017-09-10T22:36:52.952Z,944.39
2017-09-10T22:37:52.944Z,944.39
2017-09-10T22:38:52.934Z,944.36
2017-09-10T22:39:52.923Z,944.32
2017-09-10T22:40:52.914Z,944.28
2017-09-10T22:41:52.905Z,944.34
2017-09-10T22:42:52.895Z,944.29
2017-09-10T22:43:52.888Z,944.25
2017-09-10T22:44:52.894Z,944.27
2017-09-10T22:45:52.869Z,944.23
2017-09-10T22:46:52.859Z,944.2
2017-09-10T22:47:52.854Z,944.22
2017-09-10T22:48:52.846Z,944.19
2017-09-10T22:49:52.833Z,944.09
2017-09-10T22:50:52.823Z,944.2
2017-09-10T22:51:52.812Z,944.17
2017-09-10T22:52:52.803Z,944.18
2017-09-10T22:53:52.861Z,944.18
2017-09-10T22:54:52.787Z,944.18
2017-09-10T22:55:52.777Z,944.17
2017-09-10T22:56:52.767Z,944.2
2017-09-10T22:57:52.774Z,944.16
2017-09-10T22:58:52.762Z,944.11
2017-09-10T22:59:52.739Z,944.16
2017-09-10T23:00:52.731Z,944.13
2017-09-10T23:01:52.721Z,944.16
2017-09-10T23:02:52.712Z,944.14
2017-09-10T23:03:52.702Z,944.09
2017-09-10T23:04:52.692Z,944.09
2017-09-10T23:05:52.683Z,944.16
2017-09-10T23:06:52.675Z,944.23
2017-09-10T23:07:52.664Z,944.17
2017-09-10T23:08:52.656Z,944.21
2017-09-10T23:09:52.677Z,944.2
2017-09-10T23:10:52.636Z,944.2
2017-09-10T23:11:52.628Z,944.2
2017-09-10T23:12:52.617Z,944.19
2017-09-10T23:13:52.608Z,944.13
2017-09-10T23:14:52.600Z,944.17
2017-09-10T23:15:52.589Z,944.12
2017-09-10T23:16:52.579Z,944.11
2017-09-10T23:17:52.570Z,944.08
2017-09-10T23:18:52.583Z,944.08
2017-09-10T23:19:52.560Z,944.05
2017-09-10T23:20:52.544Z,944.07
2017-09-10T23:21:52.534Z,944.07
2017-09-10T23:22:52.525Z,944.12
2017-09-10T23:23:52.515Z,944.03
2017-09-10T23:24:52.505Z,944.02
2017-09-10T23:25:52.498Z,943.98
2017-09-10T23:26:52.490Z,944.02
2017-09-10T23:27:52.477Z,944.05
2017-09-10T23:28:52.482Z,944.02
2017-09-10T23:29:52.458Z,943.99
2017-09-10T23:30:52.450Z,943.98
2017-09-10T23:31:52.441Z,944.01
2017-09-10T23:32:52.431Z,943.96
2017-09-10T23:33:52.422Z,943.87
2017-09-10T23:34:52.412Z,943.84
2017-09-10T23:35:52.423Z,943.83
2017-09-10T23:36:52.396Z,943.76
2017-09-10T23:37:52.386Z,943.83
2017-09-10T23:38:52.385Z,943.8
2017-09-10T23:39:52.366Z,943.75
2017-09-10T23:40:52.356Z,943.75
2017-09-10T23:41:52.348Z,943.74
2017-09-10T23:42:52.351Z,943.72
2017-09-10T23:43:52.330Z,943.72
2017-09-10T23:44:52.320Z,943.66
2017-09-10T23:45:52.309Z,943.65
2017-09-10T23:46:52.301Z,943.66
2017-09-10T23:47:52.293Z,943.66
2017-09-10T23:48:52.283Z,943.64
2017-09-10T23:49:52.273Z,943.62
2017-09-10T23:50:52.264Z,943.61
2017-09-10T23:51:52.253Z,943.62
2017-09-10T23:52:52.244Z,943.62
2017-09-10T23:53:52.235Z,943.6
2017-09-10T23:54:52.227Z,943.56
2017-09-10T23:55:52.216Z,943.59
2017-09-10T23:56:52.208Z,943.59
2017-09-10T23:57:52.198Z,943.61
2017-09-10T23:58:52.190Z,943.57
2017-09-10T23:59:52.181Z,943.61
